Terminal Aerodrome Forecast
Issued by NWS

Home | Current Version | Previous Version | Text Only | Print | Product List | Glossary On
Versions: 1 2 3 4 5 6 7 8 9 10 11 12 13
504
FTUS44 KJAN 281146
TAFGTR
TAF
KGTR 281146Z 2812/2912 22003KT P6SM BKN015
     FM281900 23005KT P6SM VCTS BKN050CB
     FM290000 08004KT P6SM SCT050 SCT250
     FM290600 12005KT 5SM BR BKN015=

USA.gov is the U.S. government's official web portal to all federal, state and local government web resources and services.